Time;durP1;ratioP1;P1;durP2;ratioP2;P2;SDS_P1;SDS_P2;PMS_P1;PMS_P2;Temp;Humidity;BMP_temperature;BMP_pressure;BME280_temperature;BME280_humidity;BME280_pressure;Samples;Min_cycle;Max_cycle;Signal;HPM_P1;HPM_P2
2024/01/17 00:00:50;;;;;;;;;;;;;;;18.59;60.73;98004.25;2084534;28;20058;-64
2024/01/17 00:01:50;;;;;;;;;;;;;;;18.60;60.91;98008.56;2088661;28;19963;-65
2024/01/17 00:02:51;;;;;;;;;;;;;;;18.60;60.94;98008.56;2084857;28;19925;-64
2024/01/17 00:03:52;;;;;;;;;;;;;;;18.61;60.90;98004.81;2089164;28;19984;-64
2024/01/17 00:04:54;;;;;;;;;;;;;;;18.59;60.86;98004.25;2087056;28;19932;-63
2024/01/17 00:05:55;;;;;;;;;;;;;;;18.59;60.96;98010.44;2084426;28;19978;-64
2024/01/17 00:06:57;;;;;;;;;;;;;;;18.56;60.68;98005.50;2085347;28;19933;-64
2024/01/17 00:07:58;;;;;;;;;;;;;;;18.53;60.98;98001.38;2079865;28;20000;-63
2024/01/17 00:08:59;;;;;;;;;;;;;;;18.53;61.13;97997.88;2084850;28;19929;-64
2024/01/17 00:10:00;;;;;;;;;;;;;;;18.53;60.92;98004.06;2088381;28;20368;-64
2024/01/17 00:11:01;;;;;;;;;;;;;;;18.53;60.78;97997.88;2085581;28;19928;-63
2024/01/17 00:12:04;;;;;;;;;;;;;;;18.52;60.73;97998.91;2088794;28;20073;-64
2024/01/17 00:13:06;;;;;;;;;;;;;;;18.54;60.83;98003.03;2088289;28;19932;-63
2024/01/17 00:14:08;;;;;;;;;;;;;;;18.53;60.81;98006.75;2086390;28;20303;-63
2024/01/17 00:15:09;;;;;;;;;;;;;;;18.49;61.09;98002.84;2085938;28;20372;-63
2024/01/17 00:16:10;;;;;;;;;;;;;;;18.50;60.79;97995.63;2087532;28;19955;-63
2024/01/17 00:17:12;;;;;;;;;;;;;;;18.49;60.67;97999.34;2083366;28;19933;-62
2024/01/17 00:18:13;;;;;;;;;;;;;;;18.47;60.78;97993.34;2087435;28;19982;-63
2024/01/17 00:19:14;;;;;;;;;;;;;;;18.46;60.99;97991.72;2086486;28;19998;-64
2024/01/17 00:20:15;;;;;;;;;;;;;;;18.44;61.04;97991.13;2088611;28;19932;-63
2024/01/17 00:21:17;;;;;;;;;;;;;;;18.44;60.97;97997.34;2089052;28;20018;-64
2024/01/17 00:22:17;;;;;;;;;;;;;;;18.43;60.84;97992.97;2088617;28;19959;-64
2024/01/17 00:23:19;;;;;;;;;;;;;;;18.44;60.90;97994.66;2087403;28;19932;-63
2024/01/17 00:24:20;;;;;;;;;;;;;;;18.43;60.92;97986.78;2086896;28;19940;-64
2024/01/17 00:25:21;;;;;;;;;;;;;;;18.42;60.86;97988.66;2087571;28;20438;-63
2024/01/17 00:26:22;;;;;;;;;;;;;;;18.44;60.92;97989.28;2084264;28;19932;-64
2024/01/17 00:27:25;;;;;;;;;;;;;;;18.43;60.98;97997.53;2081142;28;20752;-63
2024/01/17 00:28:25;;;;;;;;;;;;;;;18.39;60.80;97999.03;2082198;28;19933;-64
2024/01/17 00:29:28;;;;;;;;;;;;;;;18.36;60.83;97994.91;2084969;28;19929;-64
2024/01/17 00:30:29;;;;;;;;;;;;;;;18.34;60.95;97991.63;2085862;28;19944;-63
2024/01/17 00:31:30;;;;;;;;;;;;;;;18.35;61.14;97993.25;2084108;28;20398;-63
2024/01/17 00:32:32;;;;;;;;;;;;;;;18.35;60.85;97993.25;2088756;28;19979;-63
2024/01/17 00:33:33;;;;;;;;;;;;;;;18.34;61.04;97991.63;2086547;28;19928;-64
2024/01/17 00:34:34;;;;;;;;;;;;;;;18.36;60.96;97986.00;2087736;28;20327;-63
2024/01/17 00:35:36;;;;;;;;;;;;;;;18.35;61.00;97993.25;2089204;28;19950;-64
2024/01/17 00:36:37;;;;;;;;;;;;;;;18.30;61.04;97993.06;2084887;28;19928;-64
2024/01/17 00:37:38;;;;;;;;;;;;;;;18.30;60.90;97985.88;2084253;28;19970;-64
2024/01/17 00:38:40;;;;;;;;;;;;;;;18.29;60.97;97984.19;2081769;28;21942;-64
2024/01/17 00:39:41;;;;;;;;;;;;;;;18.28;60.85;97984.44;2084028;28;19924;-63
2024/01/17 00:40:43;;;;;;;;;;;;;;;18.25;60.83;97983.00;2081383;28;19990;-63
2024/01/17 00:41:45;;;;;;;;;;;;;;;18.29;61.05;97976.16;2086913;28;20480;-64
2024/01/17 00:42:46;;;;;;;;;;;;;;;18.27;61.11;97975.53;2084136;28;19932;-64
2024/01/17 00:43:47;;;;;;;;;;;;;;;18.30;60.98;97975.13;2085830;28;19928;-64
2024/01/17 00:44:50;;;;;;;;;;;;;;;18.26;60.78;97967.72;2082845;28;20008;-64
2024/01/17 00:45:50;;;;;;;;;;;;;;;18.24;60.93;97964.41;2085565;28;20028;-64
2024/01/17 00:46:52;;;;;;;;;;;;;;;18.26;60.85;97968.53;2083150;28;19975;-64
2024/01/17 00:47:53;;;;;;;;;;;;;;;18.29;60.72;97961.91;2088297;28;19939;-64
2024/01/17 00:48:54;;;;;;;;;;;;;;;18.28;60.74;97960.28;2085639;28;19971;-64
2024/01/17 00:49:55;;;;;;;;;;;;;;;18.26;60.76;97962.34;2088755;28;19929;-64
2024/01/17 00:50:56;;;;;;;;;;;;;;;18.24;60.68;97956.38;2084847;28;20347;-64
2024/01/17 00:51:57;;;;;;;;;;;;;;;18.23;60.70;97952.03;2085715;28;20406;-64
2024/01/17 00:52:58;;;;;;;;;;;;;;;18.24;61.03;97949.13;2086648;28;20027;-64
2024/01/17 00:53:59;;;;;;;;;;;;;;;18.25;60.77;97948.09;2087461;28;19936;-63
2024/01/17 00:55:01;;;;;;;;;;;;;;;18.19;60.83;97948.97;2084539;28;19928;-64
2024/01/17 00:56:01;;;;;;;;;;;;;;;18.20;60.82;97958.66;2087633;28;20948;-64
2024/01/17 00:57:03;;;;;;;;;;;;;;;18.21;60.79;97948.75;2085216;28;20031;-64
2024/01/17 00:58:04;;;;;;;;;;;;;;;18.20;60.88;97947.94;2086262;28;19977;-63
2024/01/17 00:59:05;;;;;;;;;;;;;;;18.18;60.75;97949.19;2086044;28;20366;-63
2024/01/17 01:00:08;;;;;;;;;;;;;;;18.20;60.81;97942.56;2084864;28;21172;-64
2024/01/17 01:01:09;;;;;;;;;;;;;;;18.18;60.87;97943.81;2083505;28;19935;-64
2024/01/17 01:02:10;;;;;;;;;;;;;;;18.16;60.88;97937.84;2086103;28;19936;-63
2024/01/17 01:03:12;;;;;;;;;;;;;;;18.15;60.84;97936.22;2084911;28;20019;-64
2024/01/17 01:04:13;;;;;;;;;;;;;;;18.17;61.09;97942.19;2086600;28;20463;-64
2024/01/17 01:05:14;;;;;;;;;;;;;;;18.16;60.95;97937.84;2089108;28;19937;-64
2024/01/17 01:06:16;;;;;;;;;;;;;;;18.15;60.57;97937.03;2081382;28;20102;-63
2024/01/17 01:07:17;;;;;;;;;;;;;;;18.16;60.68;97943.22;2086013;28;19989;-63
2024/01/17 01:08:19;;;;;;;;;;;;;;;18.15;60.61;97938.88;2084565;28;20575;-65
2024/01/17 01:09:20;;;;;;;;;;;;;;;18.14;61.00;97935.38;2082349;28;19931;-64
2024/01/17 01:10:21;;;;;;;;;;;;;;;18.12;60.97;97937.47;2086557;28;20447;-65
2024/01/17 01:11:22;;;;;;;;;;;;;;;18.11;61.08;97943.88;2088168;28;20027;-64
2024/01/17 01:12:23;;;;;;;;;;;;;;;18.14;60.54;97940.75;2088937;28;20319;-63
2024/01/17 01:13:24;;;;;;;;;;;;;;;18.13;60.54;97955.19;2081927;28;20372;-63
2024/01/17 01:14:26;;;;;;;;;;;;;;;18.11;60.80;97946.56;2083566;28;20011;-64
2024/01/17 01:15:28;;;;;;;;;;;;;;;18.12;60.92;97958.13;2082712;28;19928;-63
2024/01/17 01:16:29;;;;;;;;;;;;;;;18.11;60.89;97959.13;2087400;28;20011;-63
2024/01/17 01:17:30;;;;;;;;;;;;;;;18.08;60.69;97961.22;2088158;28;19933;-63
2024/01/17 01:18:31;;;;;;;;;;;;;;;18.07;60.86;97964.94;2082775;28;19986;-64
2024/01/17 01:19:32;;;;;;;;;;;;;;;18.09;60.71;97970.09;2089227;28;19931;-64
2024/01/17 01:20:33;;;;;;;;;;;;;;;18.09;60.82;97973.59;2083899;28;20003;-63
2024/01/17 01:21:34;;;;;;;;;;;;;;;18.07;60.94;97986.41;2088174;28;19982;-64
2024/01/17 01:22:35;;;;;;;;;;;;;;;18.08;61.00;97993.44;2084198;28;19939;-64
2024/01/17 01:23:37;;;;;;;;;;;;;;;18.04;60.77;97986.84;2085972;28;20031;-64
2024/01/17 01:24:37;;;;;;;;;;;;;;;18.04;60.80;97980.66;2087217;28;19933;-63
2024/01/17 01:25:40;;;;;;;;;;;;;;;18.03;60.78;97982.53;2079635;28;19932;-63
2024/01/17 01:26:40;;;;;;;;;;;;;;;18.03;60.71;97977.16;2086214;28;19977;-64
2024/01/17 01:27:42;;;;;;;;;;;;;;;18.02;61.14;97980.84;2082161;28;19965;-65
2024/01/17 01:28:42;;;;;;;;;;;;;;;18.03;60.89;97979.84;2081247;28;20418;-64
2024/01/17 01:29:43;;;;;;;;;;;;;;;18.03;60.96;97971.78;2084446;28;20016;-64
2024/01/17 01:30:46;;;;;;;;;;;;;;;18.04;60.81;97981.47;2083708;28;19925;-63
2024/01/17 01:31:46;;;;;;;;;;;;;;;18.04;60.72;97970.75;2087022;28;19929;-64
2024/01/17 01:32:48;;;;;;;;;;;;;;;18.01;61.10;97976.53;2084444;28;19963;-65
2024/01/17 01:33:49;;;;;;;;;;;;;;;18.00;60.81;97977.59;2086468;28;20415;-64
2024/01/17 01:34:50;;;;;;;;;;;;;;;18.03;60.88;97973.66;2082405;28;19960;-65
2024/01/17 01:35:51;;;;;;;;;;;;;;;18.04;60.48;97973.41;2088340;28;19938;-64
2024/01/17 01:36:51;;;;;;;;;;;;;;;18.04;60.85;97977.97;2083682;28;20498;-64
2024/01/17 01:37:53;;;;;;;;;;;;;;;18.03;60.96;97974.47;2084857;28;19939;-64
2024/01/17 01:38:53;;;;;;;;;;;;;;;18.04;60.47;97972.59;2085929;28;19928;-64
2024/01/17 01:39:55;;;;;;;;;;;;;;;17.99;60.63;97962.50;2086676;28;20360;-63
2024/01/17 01:40:58;;;;;;;;;;;;;;;17.98;60.88;97958.19;2085933;28;19932;-64
2024/01/17 01:42:00;;;;;;;;;;;;;;;18.00;60.60;97950.75;2086728;28;19938;-63
2024/01/17 01:43:16;;;;;;;;;;;;;;;18.01;60.51;97956.94;2080002;28;19933;-64
2024/01/17 01:44:17;;;;;;;;;;;;;;;18.01;60.69;97955.06;2089081;28;19962;-64
2024/01/17 01:45:18;;;;;;;;;;;;;;;17.98;60.55;97949.31;2085151;28;19928;-64
2024/01/17 01:46:24;;;;;;;;;;;;;;;18.00;60.66;97956.13;2086009;28;19952;-64
2024/01/17 01:47:25;;;;;;;;;;;;;;;17.99;60.58;97959.00;2082920;28;19929;-62
2024/01/17 01:48:26;;;;;;;;;;;;;;;17.97;60.76;97953.88;2084683;28;19963;-63
2024/01/17 01:49:27;;;;;;;;;;;;;;;17.98;60.71;97960.88;2083817;28;19940;-63
2024/01/17 01:50:29;;;;;;;;;;;;;;;17.98;60.78;97950.13;2087121;28;19932;-63
2024/01/17 01:51:29;;;;;;;;;;;;;;;18.01;60.49;97952.38;2085364;28;20294;-63
2024/01/17 01:52:30;;;;;;;;;;;;;;;18.00;60.59;97944.56;2084712;28;20015;-62
2024/01/17 01:53:33;;;;;;;;;;;;;;;17.97;60.69;97950.34;2085611;28;20670;-63
2024/01/17 01:54:34;;;;;;;;;;;;;;;17.95;60.72;97945.22;2086693;28;19932;-64
2024/01/17 01:55:36;;;;;;;;;;;;;;;17.97;60.46;97951.19;2081468;28;19928;-64
2024/01/17 01:56:37;;;;;;;;;;;;;;;18.00;60.39;97950.75;2086766;28;19963;-63
2024/01/17 01:57:40;;;;;;;;;;;;;;;18.00;60.32;97942.72;2082914;28;20419;-62
2024/01/17 01:58:43;;;;;;;;;;;;;;;18.00;60.36;97949.94;2082822;28;19933;-63
2024/01/17 01:59:45;;;;;;;;;;;;;;;18.00;60.36;97947.25;2085182;28;19928;-63
2024/01/17 02:00:48;;;;;;;;;;;;;;;17.96;60.39;97943.34;2083133;28;19985;-64
2024/01/17 02:01:49;;;;;;;;;;;;;;;17.97;60.44;97956.56;2081413;28;19933;-65
2024/01/17 02:02:51;;;;;;;;;;;;;;;17.99;60.26;97943.72;2079989;28;19955;-63
2024/01/17 02:03:52;;;;;;;;;;;;;;;18.00;60.41;97949.94;2084534;28;19929;-64
2024/01/17 02:04:53;;;;;;;;;;;;;;;17.97;60.21;97951.19;2083807;28;19955;-64
2024/01/17 02:05:55;;;;;;;;;;;;;;;17.97;60.53;97948.50;2086162;28;19924;-64
2024/01/17 02:06:58;;;;;;;;;;;;;;;17.94;60.29;97943.56;2085912;28;19928;-63
2024/01/17 02:08:00;;;;;;;;;;;;;;;17.95;60.54;97947.91;2086167;28;21135;-64
2024/01/17 02:09:01;;;;;;;;;;;;;;;17.97;60.48;97948.50;2083789;28;19940;-64
2024/01/17 02:10:03;;;;;;;;;;;;;;;17.96;60.25;97946.84;2083925;28;20214;-64
2024/01/17 02:11:04;;;;;;;;;;;;;;;17.95;60.40;97941.72;2084823;28;19936;-64
2024/01/17 02:12:08;;;;;;;;;;;;;;;17.93;60.32;97941.91;2085047;28;19928;-64
2024/01/17 02:13:08;;;;;;;;;;;;;;;17.93;60.67;97935.72;2084323;28;20212;-63
2024/01/17 02:14:10;;;;;;;;;;;;;;;17.94;60.29;97938.22;2086098;28;20446;-64
2024/01/17 02:15:10;;;;;;;;;;;;;;;17.95;60.46;97936.34;2087852;28;20664;-64
2024/01/17 02:16:13;;;;;;;;;;;;;;;17.95;60.41;97939.84;2082748;28;19971;-65
2024/01/17 02:17:15;;;;;;;;;;;;;;;17.92;60.39;97934.91;2085687;28;19928;-65
2024/01/17 02:18:16;;;;;;;;;;;;;;;17.93;60.26;97933.88;2085401;28;20498;-64
2024/01/17 02:19:17;;;;;;;;;;;;;;;17.93;60.28;97930.38;2083905;28;19933;-65
2024/01/17 02:20:19;;;;;;;;;;;;;;;17.93;60.37;97936.53;2087539;28;19929;-64
2024/01/17 02:21:20;;;;;;;;;;;;;;;17.92;60.32;97937.59;2085183;28;19936;-63
2024/01/17 02:22:22;;;;;;;;;;;;;;;17.92;60.56;97939.47;2085828;28;19979;-64
2024/01/17 02:23:23;;;;;;;;;;;;;;;17.91;60.44;97932.44;2087543;28;19932;-63
2024/01/17 02:24:28;;;;;;;;;;;;;;;17.91;60.04;97927.88;2084044;28;20645;-64
2024/01/17 02:25:29;;;;;;;;;;;;;;;17.90;60.27;97931.63;2086260;28;19940;-64
2024/01/17 02:26:30;;;;;;;;;;;;;;;17.89;60.44;97939.91;2086095;28;19929;-64
2024/01/17 02:27:31;;;;;;;;;;;;;;;17.91;60.39;97943.97;2083300;28;20307;-65
2024/01/17 02:28:33;;;;;;;;;;;;;;;17.91;60.13;97945.84;2081846;28;19955;-65
2024/01/17 02:29:33;;;;;;;;;;;;;;;17.86;60.49;97941.97;2087178;28;19951;-63
2024/01/17 02:30:34;;;;;;;;;;;;;;;17.89;60.42;97945.25;2082622;28;20382;-63
2024/01/17 02:31:36;;;;;;;;;;;;;;;17.91;60.28;97937.81;2082436;28;19983;-64
2024/01/17 02:32:37;;;;;;;;;;;;;;;17.88;60.26;97938.22;2085637;28;20417;-64
2024/01/17 02:33:38;;;;;;;;;;;;;;;17.89;60.36;97940.72;2084860;28;19924;-65
2024/01/17 02:34:39;;;;;;;;;;;;;;;17.90;60.36;97936.97;2085393;28;21876;-64
2024/01/17 02:35:40;;;;;;;;;;;;;;;17.89;60.11;97934.53;2089548;28;19975;-64
2024/01/17 02:36:42;;;;;;;;;;;;;;;17.87;60.08;97932.06;2084478;28;19947;-63
2024/01/17 02:37:42;;;;;;;;;;;;;;;17.88;60.12;97936.38;2084341;28;19992;-63
2024/01/17 02:38:43;;;;;;;;;;;;;;;17.84;60.26;97935.16;2083205;28;20451;-63
2024/01/17 02:39:46;;;;;;;;;;;;;;;17.85;60.46;97928.75;2084773;28;19933;-64
2024/01/17 02:40:46;;;;;;;;;;;;;;;17.86;60.09;97927.72;2085640;28;19931;-63
2024/01/17 02:41:48;;;;;;;;;;;;;;;17.85;60.34;97931.44;2087799;28;20019;-64
2024/01/17 02:42:49;;;;;;;;;;;;;;;17.83;60.30;97930.84;2086675;28;19936;-64
2024/01/17 02:43:50;;;;;;;;;;;;;;;17.81;60.44;97928.38;2084542;28;20039;-64
2024/01/17 02:44:51;;;;;;;;;;;;;;;17.80;60.50;97929.41;2084523;28;20544;-64
2024/01/17 02:45:52;;;;;;;;;;;;;;;17.79;60.37;97934.97;2085260;28;20027;-63
2024/01/17 02:46:53;;;;;;;;;;;;;;;17.78;60.50;97936.84;2084003;28;19936;-64
2024/01/17 02:47:54;;;;;;;;;;;;;;;17.79;60.43;97929.63;2085726;28;19975;-64
2024/01/17 02:48:55;;;;;;;;;;;;;;;17.82;60.23;97929.19;2084626;28;19940;-64
2024/01/17 02:49:57;;;;;;;;;;;;;;;17.81;60.31;97930.22;2086232;28;19935;-64
2024/01/17 02:50:59;;;;;;;;;;;;;;;17.80;60.28;97925.88;2085837;28;20350;-63
2024/01/17 02:52:00;;;;;;;;;;;;;;;17.78;60.18;97922.59;2083249;28;19928;-64
2024/01/17 02:53:01;;;;;;;;;;;;;;;17.79;60.30;97913.53;2078364;28;21401;-64
2024/01/17 02:54:02;;;;;;;;;;;;;;;17.79;60.36;97918.88;2083614;28;19936;-63
2024/01/17 02:55:05;;;;;;;;;;;;;;;17.77;60.31;97920.94;2086725;28;20378;-64
2024/01/17 02:56:06;;;;;;;;;;;;;;;17.75;60.35;97914.97;2085112;28;20418;-64
2024/01/17 02:57:08;;;;;;;;;;;;;;;17.72;60.19;97910.88;2085275;28;19928;-63
2024/01/17 02:58:08;;;;;;;;;;;;;;;17.73;60.35;97911.69;2084204;28;19932;-63
2024/01/17 02:59:09;;;;;;;;;;;;;;;17.74;60.15;97910.63;2085942;28;19975;-64
2024/01/17 03:00:11;;;;;;;;;;;;;;;17.75;60.24;97907.75;2086885;28;20371;-63
2024/01/17 03:01:12;;;;;;;;;;;;;;;17.75;60.13;97915.78;2084198;28;20456;-64
2024/01/17 03:02:14;;;;;;;;;;;;;;;17.74;60.34;97910.63;2083731;28;20590;-64
2024/01/17 03:03:15;;;;;;;;;;;;;;;17.72;60.17;97912.69;2086164;28;19929;-63
2024/01/17 03:04:16;;;;;;;;;;;;;;;17.73;60.35;97909.00;2087276;28;19976;-63
2024/01/17 03:05:17;;;;;;;;;;;;;;;17.73;60.18;97900.94;2082925;28;20563;-64
2024/01/17 03:06:19;;;;;;;;;;;;;;;17.71;60.35;97901.16;2086690;28;19972;-63
2024/01/17 03:07:19;;;;;;;;;;;;;;;17.72;60.28;97902.81;2083913;28;20403;-61
2024/01/17 03:08:21;;;;;;;;;;;;;;;17.69;60.14;97905.09;2083874;28;19963;-63
2024/01/17 03:09:21;;;;;;;;;;;;;;;17.69;60.33;97897.88;2083818;28;20304;-64
2024/01/17 03:10:24;;;;;;;;;;;;;;;17.70;60.35;97904.06;2085575;28;20003;-64
2024/01/17 03:11:25;;;;;;;;;;;;;;;17.71;60.13;97908.38;2085650;28;19932;-63
2024/01/17 03:12:27;;;;;;;;;;;;;;;17.69;60.20;97907.75;2088291;28;19976;-63
2024/01/17 03:13:27;;;;;;;;;;;;;;;17.68;60.41;97909.63;2084552;28;19928;-64
2024/01/17 03:14:31;;;;;;;;;;;;;;;17.65;60.44;97907.38;2084123;28;20391;-64
2024/01/17 03:15:31;;;;;;;;;;;;;;;17.65;60.46;97905.53;2084730;28;19932;-63
2024/01/17 03:16:33;;;;;;;;;;;;;;;17.66;60.22;97909.00;2085180;28;19924;-64
2024/01/17 03:17:34;;;;;;;;;;;;;;;17.64;60.25;97914.63;2088044;28;19951;-64
2024/01/17 03:18:37;;;;;;;;;;;;;;;17.63;60.29;97909.44;2087769;28;21102;-64
2024/01/17 03:19:38;;;;;;;;;;;;;;;17.63;60.27;97910.31;2087191;28;19933;-65
2024/01/17 03:20:40;;;;;;;;;;;;;;;17.65;60.11;97907.38;2085777;28;20032;-64
2024/01/17 03:21:43;;;;;;;;;;;;;;;17.67;60.06;97902.63;2088775;28;19936;-64
2024/01/17 03:22:45;;;;;;;;;;;;;;;17.65;60.36;97899.34;2086271;28;19924;-63
2024/01/17 03:23:46;;;;;;;;;;;;;;;17.64;60.41;97901.19;2086353;28;21855;-64
2024/01/17 03:24:47;;;;;;;;;;;;;;;17.64;60.07;97900.38;2084099;28;19935;-63
2024/01/17 03:25:49;;;;;;;;;;;;;;;17.65;60.02;97893.97;2087610;28;20402;-62
2024/01/17 03:26:51;;;;;;;;;;;;;;;17.63;60.31;97898.72;2087987;28;19928;-63
2024/01/17 03:27:52;;;;;;;;;;;;;;;17.62;60.36;97892.53;2088006;28;19924;-64
2024/01/17 03:28:53;;;;;;;;;;;;;;;17.62;60.30;97894.41;2080935;28;20020;-64
2024/01/17 03:29:54;;;;;;;;;;;;;;;17.61;60.22;97887.41;2087793;28;19932;-64
2024/01/17 03:30:54;;;;;;;;;;;;;;;17.60;60.11;97883.88;2083349;28;20028;-63
2024/01/17 03:31:56;;;;;;;;;;;;;;;17.64;60.09;97893.16;2087352;28;19940;-64
2024/01/17 03:32:56;;;;;;;;;;;;;;;17.61;60.11;97880.19;2086347;28;19925;-63
2024/01/17 03:33:58;;;;;;;;;;;;;;;17.61;60.38;97872.13;2083811;28;20011;-63
2024/01/17 03:34:59;;;;;;;;;;;;;;;17.60;60.13;97881.19;2087867;28;19977;-64
2024/01/17 03:36:01;;;;;;;;;;;;;;;17.58;60.23;97880.63;2086033;28;20027;-64
2024/01/17 03:37:01;;;;;;;;;;;;;;;17.57;60.16;97878.13;2084601;28;19940;-63
2024/01/17 03:38:02;;;;;;;;;;;;;;;17.60;60.37;97881.19;2084825;28;19987;-63
2024/01/17 03:39:04;;;;;;;;;;;;;;;17.57;60.34;97875.47;2087367;28;19932;-63
2024/01/17 03:40:05;;;;;;;;;;;;;;;17.58;60.12;97869.91;2085841;28;19928;-63
2024/01/17 03:41:08;;;;;;;;;;;;;;;17.56;60.16;97869.28;2093045;28;19928;-63
2024/01/17 03:42:15;;;;;;;;;;;;;;;17.58;60.17;97866.41;2084780;28;19932;-64
2024/01/17 03:43:16;;;;;;;;;;;;;;;17.57;60.11;97859.38;2084255;28;19933;-63
2024/01/17 03:44:17;;;;;;;;;;;;;;;17.54;60.26;97857.94;2085144;28;25071;-63
2024/01/17 03:45:19;;;;;;;;;;;;;;;17.54;60.37;97860.63;2084882;28;20019;-64
2024/01/17 03:46:19;;;;;;;;;;;;;;;17.52;60.33;97851.97;2088834;28;19924;-62
2024/01/17 03:47:21;;;;;;;;;;;;;;;17.55;60.34;97846.19;2089502;28;19928;-64
2024/01/17 03:48:21;;;;;;;;;;;;;;;17.55;60.36;97854.25;2084986;28;19932;-63
2024/01/17 03:49:23;;;;;;;;;;;;;;;17.52;60.32;97849.28;2089167;28;20126;-64
2024/01/17 03:50:24;;;;;;;;;;;;;;;17.56;60.07;97858.56;2088398;28;19928;-64
2024/01/17 03:51:25;;;;;;;;;;;;;;;17.53;60.29;97859.00;2087056;28;20043;-64
2024/01/17 03:52:26;;;;;;;;;;;;;;;17.50;60.39;97856.75;2088083;28;19932;-63
2024/01/17 03:53:28;;;;;;;;;;;;;;;17.47;60.26;97849.13;2085084;28;19964;-64
2024/01/17 03:54:28;;;;;;;;;;;;;;;17.45;60.39;97851.19;2084546;28;19933;-63
2024/01/17 03:55:30;;;;;;;;;;;;;;;17.50;60.18;97847.88;2086775;28;19936;-64
2024/01/17 03:56:32;;;;;;;;;;;;;;;17.46;60.48;97850.16;2085374;28;19933;-63
2024/01/17 03:57:32;;;;;;;;;;;;;;;17.47;60.33;97846.44;2085081;28;19976;-64
2024/01/17 03:58:34;;;;;;;;;;;;;;;17.48;60.31;97848.09;2083700;28;19940;-64
2024/01/17 03:59:35;;;;;;;;;;;;;;;17.45;60.51;97853.88;2086020;28;20126;-63
2024/01/17 04:00:36;;;;;;;;;;;;;;;17.47;60.15;97845.59;2091656;28;19967;-65
2024/01/17 04:01:41;;;;;;;;;;;;;;;17.46;60.37;97850.16;2084577;28;20036;-64
2024/01/17 04:02:43;;;;;;;;;;;;;;;17.45;60.28;97845.84;2091162;28;19937;-63
2024/01/17 04:03:44;;;;;;;;;;;;;;;17.46;60.25;97839.41;2088613;28;20029;-65
2024/01/17 04:04:45;;;;;;;;;;;;;;;17.46;60.27;97835.94;2089089;28;20465;-64
2024/01/17 04:05:46;;;;;;;;;;;;;;;17.45;60.44;97845.84;2086453;28;19935;-64
2024/01/17 04:06:47;;;;;;;;;;;;;;;17.45;60.28;97843.16;2086876;28;19981;-64
2024/01/17 04:07:49;;;;;;;;;;;;;;;17.41;60.40;97839.25;2084819;28;20713;-63
2024/01/17 04:08:49;;;;;;;;;;;;;;;17.36;60.62;97828.38;2087180;28;19948;-64
2024/01/17 04:09:50;;;;;;;;;;;;;;;17.30;60.71;97824.69;2085719;28;19925;-64
2024/01/17 04:10:51;;;;;;;;;;;;;;;17.36;60.74;97823.81;2084997;28;19933;-64
2024/01/17 04:11:53;;;;;;;;;;;;;;;17.40;60.36;97814.31;2081420;28;20001;-64
2024/01/17 04:12:55;;;;;;;;;;;;;;;17.39;60.47;97817.22;2083685;28;20660;-64
2024/01/17 04:13:56;;;;;;;;;;;;;;;17.42;60.25;97816.78;2085019;28;19929;-63
2024/01/17 04:14:57;;;;;;;;;;;;;;;17.46;60.17;97815.28;2083431;28;19987;-65
2024/01/17 04:15:59;;;;;;;;;;;;;;;17.52;60.24;97810.94;2085245;28;23526;-64
2024/01/17 04:17:00;;;;;;;;;;;;;;;17.57;59.82;97811.91;2087110;28;19965;-64
2024/01/17 04:18:01;;;;;;;;;;;;;;;17.61;59.85;97807.78;2087983;28;19928;-64
2024/01/17 04:19:02;;;;;;;;;;;;;;;17.64;59.99;97798.47;2084230;28;19987;-63
2024/01/17 04:20:03;;;;;;;;;;;;;;;17.67;59.83;97798.06;2086784;28;19964;-64
2024/01/17 04:21:04;;;;;;;;;;;;;;;17.70;60.00;97805.66;2083140;28;19932;-64
2024/01/17 04:22:06;;;;;;;;;;;;;;;17.73;59.97;97809.75;2084052;28;20024;-65
2024/01/17 04:23:06;;;;;;;;;;;;;;;17.75;59.79;97811.19;2083210;28;19924;-63
2024/01/17 04:24:08;;;;;;;;;;;;;;;17.78;59.87;97805.41;2084945;28;20024;-65
2024/01/17 04:25:09;;;;;;;;;;;;;;;17.81;59.83;97802.31;2083846;28;20304;-64
2024/01/17 04:26:19;;;;;;;;;;;;;;;17.83;59.70;97802.09;2086331;28;20031;-65
2024/01/17 04:27:21;;;;;;;;;;;;;;;17.86;59.75;97801.66;2085593;28;19991;-63
2024/01/17 04:28:23;;;;;;;;;;;;;;;17.87;59.85;97800.59;2084485;28;19929;-64
2024/01/17 04:29:23;;;;;;;;;;;;;;;17.89;59.62;97806.56;2082159;28;20017;-64
2024/01/17 04:30:25;;;;;;;;;;;;;;;17.90;59.75;97797.47;2087611;28;20019;-63
2024/01/17 04:31:26;;;;;;;;;;;;;;;17.93;59.62;97801.59;2083255;28;19933;-64
2024/01/17 04:32:28;;;;;;;;;;;;;;;17.94;59.76;97801.38;2081280;28;20010;-65
2024/01/17 04:33:29;;;;;;;;;;;;;;;17.95;59.71;97794.97;2082814;28;19936;-65
2024/01/17 04:34:30;;;;;;;;;;;;;;;17.98;59.48;97799.06;2084060;28;20014;-65
2024/01/17 04:35:31;;;;;;;;;;;;;;;17.99;59.52;97798.84;2086040;28;19985;-63
2024/01/17 04:36:32;;;;;;;;;;;;;;;18.01;59.47;97794.06;2086438;28;21389;-63
2024/01/17 04:37:33;;;;;;;;;;;;;;;18.01;59.48;97804.81;2083652;28;19940;-64
2024/01/17 04:38:34;;;;;;;;;;;;;;;18.05;59.64;97794.44;2084600;28;19928;-64
2024/01/17 04:39:35;;;;;;;;;;;;;;;18.06;59.42;97796.94;2085489;28;20303;-64
2024/01/17 04:40:36;;;;;;;;;;;;;;;18.07;59.55;97787.81;2082527;28;19940;-65
2024/01/17 04:41:37;;;;;;;;;;;;;;;18.09;59.69;97784.94;2076509;28;19940;-65
2024/01/17 04:42:39;;;;;;;;;;;;;;;18.10;59.38;97781.19;2074996;28;19931;-65
2024/01/17 04:43:41;;;;;;;;;;;;;;;18.12;59.59;97783.69;2083033;28;19940;-63
2024/01/17 04:44:43;;;;;;;;;;;;;;;18.15;59.43;97783.22;2082647;28;19935;-65
2024/01/17 04:45:44;;;;;;;;;;;;;;;18.17;59.60;97778.47;2081501;28;19937;-63
2024/01/17 04:46:46;;;;;;;;;;;;;;;18.16;59.46;97774.94;2089183;28;22269;-65
2024/01/17 04:47:49;;;;;;;;;;;;;;;18.19;59.50;97768.31;2081958;28;19933;-64
2024/01/17 04:48:49;;;;;;;;;;;;;;;18.20;59.31;97769.97;2087713;28;19936;-65
2024/01/17 04:49:51;;;;;;;;;;;;;;;18.21;59.48;97766.25;2086020;28;20007;-64
2024/01/17 04:50:52;;;;;;;;;;;;;;;18.22;59.32;97762.50;2081686;28;20524;-65
2024/01/17 04:51:54;;;;;;;;;;;;;;;18.24;59.61;97769.28;2084078;28;19939;-64
2024/01/17 04:52:54;;;;;;;;;;;;;;;18.26;59.31;97769.06;2086541;28;19925;-64
2024/01/17 04:53:58;;;;;;;;;;;;;;;18.28;59.31;97777.75;2085543;28;20528;-65
2024/01/17 04:54:58;;;;;;;;;;;;;;;18.29;59.17;97785.56;2083370;28;19932;-65
2024/01/17 04:55:59;;;;;;;;;;;;;;;18.30;59.19;97771.09;2086207;28;19932;-64
2024/01/17 04:57:01;;;;;;;;;;;;;;;18.33;59.25;97780.59;2080153;28;19932;-65
2024/01/17 04:58:04;;;;;;;;;;;;;;;18.34;59.48;97782.22;2086758;28;19928;-64
2024/01/17 04:59:05;;;;;;;;;;;;;;;18.36;59.38;97772.09;2079909;28;19924;-64
2024/01/17 05:00:08;;;;;;;;;;;;;;;18.37;59.34;97768.34;2085793;28;20392;-65
2024/01/17 05:01:10;;;;;;;;;;;;;;;18.40;59.39;97769.75;2083073;28;20005;-65
2024/01/17 05:02:11;;;;;;;;;;;;;;;18.41;59.24;97772.22;2089023;28;19936;-65
2024/01/17 05:03:13;;;;;;;;;;;;;;;18.42;59.17;97768.50;2086617;28;20023;-65
2024/01/17 05:04:14;;;;;;;;;;;;;;;18.43;59.33;97762.06;2089299;28;19939;-66
2024/01/17 05:05:15;;;;;;;;;;;;;;;18.44;59.34;97766.41;2082702;28;19925;-65
2024/01/17 05:06:16;;;;;;;;;;;;;;;18.46;59.06;97753.56;2085705;28;19944;-65
2024/01/17 05:07:18;;;;;;;;;;;;;;;18.46;59.29;97753.56;2084039;28;20012;-65
2024/01/17 05:08:18;;;;;;;;;;;;;;;18.48;59.41;97751.50;2084760;28;19936;-65
2024/01/17 05:09:21;;;;;;;;;;;;;;;18.50;59.10;97754.78;2086541;28;20572;-63
2024/01/17 05:10:23;;;;;;;;;;;;;;;18.51;59.00;97751.03;2084727;28;19932;-64
2024/01/17 05:11:25;;;;;;;;;;;;;;;18.51;59.51;97750.22;2085316;28;19925;-64
2024/01/17 05:12:26;;;;;;;;;;;;;;;18.52;59.18;97752.66;2086014;28;20342;-66
2024/01/17 05:13:29;;;;;;;;;;;;;;;18.53;59.23;97754.31;2081956;28;20011;-65
2024/01/17 05:14:30;;;;;;;;;;;;;;;18.53;59.23;97754.31;2083452;28;24516;-65
2024/01/17 05:15:31;;;;;;;;;;;;;;;18.54;59.44;97769.38;2087290;28;20536;-63
2024/01/17 05:16:32;;;;;;;;;;;;;;;18.53;59.42;97767.75;2085840;28;19931;-64
2024/01/17 05:17:34;;;;;;;;;;;;;;;18.52;59.19;97768.78;2087513;28;20430;-64
2024/01/17 05:18:34;;;;;;;;;;;;;;;18.52;59.07;97770.66;2088677;28;19932;-63
2024/01/17 05:19:35;;;;;;;;;;;;;;;18.51;59.30;97764.47;2083273;28;19928;-64
2024/01/17 05:20:37;;;;;;;;;;;;;;;18.52;59.35;97763.41;2086905;28;19932;-63